sensor_id;sensor_type;location;lat;lon;timestamp;pressure;altitude;pressure_sealevel;temperature
74915;BMP280;63475;45.140;-75.616;2023-01-20T00:00:35;99630.94;;;-1.08
74915;BMP280;63475;45.140;-75.616;2023-01-20T00:01:38;99630.50;;;-1.10
74915;BMP280;63475;45.140;-75.616;2023-01-20T00:02:39;99628.00;;;-1.06
74915;BMP280;63475;45.140;-75.616;2023-01-20T00:03:41;99619.78;;;-1.08
74915;BMP280;63475;45.140;-75.616;2023-01-20T00:04:42;99626.00;;;-1.13
74915;BMP280;63475;45.140;-75.616;2023-01-20T00:05:50;99610.59;;;-1.22
74915;BMP280;63475;45.140;-75.616;2023-01-20T00:06:51;99620.88;;;-1.09
74915;BMP280;63475;45.140;-75.616;2023-01-20T00:07:52;99589.25;;;-1.31
74915;BMP280;63475;45.140;-75.616;2023-01-20T00:08:55;99613.84;;;-1.09
74915;BMP280;63475;45.140;-75.616;2023-01-20T00:09:56;99617.44;;;-1.13
74915;BMP280;63475;45.140;-75.616;2023-01-20T00:10:57;99624.00;;;-1.20
74915;BMP280;63475;45.140;-75.616;2023-01-20T00:11:58;99624.00;;;-1.20
74915;BMP280;63475;45.140;-75.616;2023-01-20T00:12:59;99634.13;;;-1.14
74915;BMP280;63475;45.140;-75.616;2023-01-20T00:14:01;99614.63;;;-1.24
74915;BMP280;63475;45.140;-75.616;2023-01-20T00:15:03;99618.53;;;-1.14
74915;BMP280;63475;45.140;-75.616;2023-01-20T00:16:07;99616.22;;;-1.20
74915;BMP280;63475;45.140;-75.616;2023-01-20T00:17:08;99603.47;;;-1.25
74915;BMP280;63475;45.140;-75.616;2023-01-20T00:18:09;99619.06;;;-1.25
74915;BMP280;63475;45.140;-75.616;2023-01-20T00:19:13;99608.59;;;-1.28
74915;BMP280;63475;45.140;-75.616;2023-01-20T00:20:15;99585.41;;;-1.37
74915;BMP280;63475;45.140;-75.616;2023-01-20T00:21:16;99588.56;;;-1.28
74915;BMP280;63475;45.140;-75.616;2023-01-20T00:22:17;99547.22;;;-1.52
74915;BMP280;63475;45.140;-75.616;2023-01-20T00:23:18;99554.09;;;-1.44
74915;BMP280;63475;45.140;-75.616;2023-01-20T00:24:19;99592.25;;;-1.29
74915;BMP280;63475;45.140;-75.616;2023-01-20T00:25:20;99590.69;;;-1.33
74915;BMP280;63475;45.140;-75.616;2023-01-20T00:26:23;99557.19;;;-1.54
74915;BMP280;63475;45.140;-75.616;2023-01-20T00:27:24;99592.44;;;-1.37
74915;BMP280;63475;45.140;-75.616;2023-01-20T00:28:25;99587.59;;;-1.39
74915;BMP280;63475;45.140;-75.616;2023-01-20T00:29:26;99584.16;;;-1.43
74915;BMP280;63475;45.140;-75.616;2023-01-20T00:30:27;99573.44;;;-1.41
74915;BMP280;63475;45.140;-75.616;2023-01-20T00:31:30;99554.78;;;-1.47
74915;BMP280;63475;45.140;-75.616;2023-01-20T00:32:36;99562.97;;;-1.45
74915;BMP280;63475;45.140;-75.616;2023-01-20T00:33:37;99553.44;;;-1.57
74915;BMP280;63475;45.140;-75.616;2023-01-20T00:34:38;99571.59;;;-1.41
74915;BMP280;63475;45.140;-75.616;2023-01-20T00:35:39;99584.59;;;-1.41
74915;BMP280;63475;45.140;-75.616;2023-01-20T00:36:40;99582.75;;;-1.40
74915;BMP280;63475;45.140;-75.616;2023-01-20T00:37:42;99584.25;;;-1.39
74915;BMP280;63475;45.140;-75.616;2023-01-20T00:38:43;99582.31;;;-1.42
74915;BMP280;63475;45.140;-75.616;2023-01-20T00:39:44;99575.69;;;-1.40
74915;BMP280;63475;45.140;-75.616;2023-01-20T00:40:52;99547.47;;;-1.41
74915;BMP280;63475;45.140;-75.616;2023-01-20T00:41:54;99523.28;;;-1.61
74915;BMP280;63475;45.140;-75.616;2023-01-20T00:42:55;99526.88;;;-1.50
74915;BMP280;63475;45.140;-75.616;2023-01-20T00:43:56;99527.94;;;-1.51
74915;BMP280;63475;45.140;-75.616;2023-01-20T00:44:57;99530.25;;;-1.49
74915;BMP280;63475;45.140;-75.616;2023-01-20T00:45:58;99536.25;;;-1.45
74915;BMP280;63475;45.140;-75.616;2023-01-20T00:46:59;99540.03;;;-1.43
74915;BMP280;63475;45.140;-75.616;2023-01-20T00:48:00;99519.38;;;-1.71
74915;BMP280;63475;45.140;-75.616;2023-01-20T00:49:01;99557.59;;;-1.52
74915;BMP280;63475;45.140;-75.616;2023-01-20T00:50:02;99530.59;;;-1.67
74915;BMP280;63475;45.140;-75.616;2023-01-20T00:51:04;99534.28;;;-1.68
74915;BMP280;63475;45.140;-75.616;2023-01-20T00:52:05;99486.53;;;-1.95
74915;BMP280;63475;45.140;-75.616;2023-01-20T00:53:06;99492.16;;;-1.77
74915;BMP280;63475;45.140;-75.616;2023-01-20T00:54:07;99512.06;;;-1.65
74915;BMP280;63475;45.140;-75.616;2023-01-20T00:55:09;99501.47;;;-1.76
74915;BMP280;63475;45.140;-75.616;2023-01-20T00:56:10;99530.66;;;-1.63
74915;BMP280;63475;45.140;-75.616;2023-01-20T00:57:11;99539.28;;;-1.59
74915;BMP280;63475;45.140;-75.616;2023-01-20T00:58:12;99548.06;;;-1.64
74915;BMP280;63475;45.140;-75.616;2023-01-20T00:59:13;99540.69;;;-1.62
74915;BMP280;63475;45.140;-75.616;2023-01-20T01:00:16;99535.09;;;-1.64
74915;BMP280;63475;45.140;-75.616;2023-01-20T01:01:17;99522.97;;;-1.75
74915;BMP280;63475;45.140;-75.616;2023-01-20T01:02:18;99459.94;;;-2.23
74915;BMP280;63475;45.140;-75.616;2023-01-20T01:03:19;99511.75;;;-1.79
74915;BMP280;63475;45.140;-75.616;2023-01-20T01:04:21;99532.09;;;-1.66
74915;BMP280;63475;45.140;-75.616;2023-01-20T01:05:22;99528.41;;;-1.65
74915;BMP280;63475;45.140;-75.616;2023-01-20T01:06:23;99495.78;;;-1.82
74915;BMP280;63475;45.140;-75.616;2023-01-20T01:07:24;99493.84;;;-1.85
74915;BMP280;63475;45.140;-75.616;2023-01-20T01:08:25;99487.84;;;-1.85
74915;BMP280;63475;45.140;-75.616;2023-01-20T01:09:26;99515.59;;;-1.73
74915;BMP280;63475;45.140;-75.616;2023-01-20T01:10:27;99500.22;;;-1.82
74915;BMP280;63475;45.140;-75.616;2023-01-20T01:11:27;99511.66;;;-1.83
74915;BMP280;63475;45.140;-75.616;2023-01-20T01:12:28;99510.16;;;-1.84
74915;BMP280;63475;45.140;-75.616;2023-01-20T01:13:30;99496.25;;;-1.92
74915;BMP280;63475;45.140;-75.616;2023-01-20T01:14:31;99481.00;;;-1.93
74915;BMP280;63475;45.140;-75.616;2023-01-20T01:15:32;99475.75;;;-1.97
74915;BMP280;63475;45.140;-75.616;2023-01-20T01:16:33;99493.06;;;-1.85
74915;BMP280;63475;45.140;-75.616;2023-01-20T01:17:34;99495.34;;;-1.84
74915;BMP280;63475;45.140;-75.616;2023-01-20T01:18:35;99499.78;;;-1.84
74915;BMP280;63475;45.140;-75.616;2023-01-20T01:19:36;99496.44;;;-1.85
74915;BMP280;63475;45.140;-75.616;2023-01-20T01:20:38;99492.00;;;-1.84
74915;BMP280;63475;45.140;-75.616;2023-01-20T01:21:39;99495.97;;;-1.87
74915;BMP280;63475;45.140;-75.616;2023-01-20T01:22:39;99489.22;;;-1.91
74915;BMP280;63475;45.140;-75.616;2023-01-20T01:23:41;99494.75;;;-1.93
74915;BMP280;63475;45.140;-75.616;2023-01-20T01:24:43;99498.00;;;-1.96
74915;BMP280;63475;45.140;-75.616;2023-01-20T01:25:44;99500.34;;;-1.91
74915;BMP280;63475;45.140;-75.616;2023-01-20T01:26:45;99504.78;;;-1.91
74915;BMP280;63475;45.140;-75.616;2023-01-20T01:27:46;99494.56;;;-2.00
74915;BMP280;63475;45.140;-75.616;2023-01-20T01:28:47;99498.41;;;-1.94
74915;BMP280;63475;45.140;-75.616;2023-01-20T01:29:48;99489.88;;;-1.94
74915;BMP280;63475;45.140;-75.616;2023-01-20T01:30:49;99487.72;;;-1.92
74915;BMP280;63475;45.140;-75.616;2023-01-20T01:31:50;99490.28;;;-1.92
74915;BMP280;63475;45.140;-75.616;2023-01-20T01:32:51;99486.63;;;-1.91
74915;BMP280;63475;45.140;-75.616;2023-01-20T01:33:52;99480.19;;;-1.97
74915;BMP280;63475;45.140;-75.616;2023-01-20T01:34:53;99480.84;;;-2.00
74915;BMP280;63475;45.140;-75.616;2023-01-20T01:35:58;99492.47;;;-1.94
74915;BMP280;63475;45.140;-75.616;2023-01-20T01:36:59;99484.69;;;-1.94
74915;BMP280;63475;45.140;-75.616;2023-01-20T01:38:00;99486.94;;;-1.93
74915;BMP280;63475;45.140;-75.616;2023-01-20T01:39:01;99480.03;;;-2.04
74915;BMP280;63475;45.140;-75.616;2023-01-20T01:40:02;99486.38;;;-2.02
74915;BMP280;63475;45.140;-75.616;2023-01-20T01:41:04;99474.66;;;-2.12
74915;BMP280;63475;45.140;-75.616;2023-01-20T01:42:14;99495.75;;;-1.97
74915;BMP280;63475;45.140;-75.616;2023-01-20T01:43:36;99503.59;;;-1.94
74915;BMP280;63475;45.140;-75.616;2023-01-20T01:45:02;99503.19;;;-1.96
74915;BMP280;63475;45.140;-75.616;2023-01-20T01:45:59;99506.97;;;-1.93
74915;BMP280;63475;45.140;-75.616;2023-01-20T01:47:00;99433.19;;;-2.43
74915;BMP280;63475;45.140;-75.616;2023-01-20T01:48:04;99494.50;;;-2.03
74915;BMP280;63475;45.140;-75.616;2023-01-20T01:49:19;99492.81;;;-1.96
74915;BMP280;63475;45.140;-75.616;2023-01-20T01:50:28;99465.72;;;-2.14
74915;BMP280;63475;45.140;-75.616;2023-01-20T01:51:45;99490.63;;;-1.94
74915;BMP280;63475;45.140;-75.616;2023-01-20T01:52:50;99489.97;;;-1.91
74915;BMP280;63475;45.140;-75.616;2023-01-20T01:53:55;99467.13;;;-2.01
74915;BMP280;63475;45.140;-75.616;2023-01-20T01:54:58;99491.06;;;-1.92
74915;BMP280;63475;45.140;-75.616;2023-01-20T01:56:01;99481.75;;;-1.93
74915;BMP280;63475;45.140;-75.616;2023-01-20T01:57:07;99473.56;;;-1.95
74915;BMP280;63475;45.140;-75.616;2023-01-20T01:58:11;99477.66;;;-1.94
74915;BMP280;63475;45.140;-75.616;2023-01-20T01:59:13;99469.47;;;-1.96
74915;BMP280;63475;45.140;-75.616;2023-01-20T02:00:15;99438.97;;;-2.18
74915;BMP280;63475;45.140;-75.616;2023-01-20T02:01:16;99470.63;;;-1.93
74915;BMP280;63475;45.140;-75.616;2023-01-20T02:02:18;99469.13;;;-1.94
74915;BMP280;63475;45.140;-75.616;2023-01-20T02:03:19;99464.69;;;-1.94
74915;BMP280;63475;45.140;-75.616;2023-01-20T02:04:23;99467.97;;;-1.97
74915;BMP280;63475;45.140;-75.616;2023-01-20T02:05:26;99456.84;;;-1.97
74915;BMP280;63475;45.140;-75.616;2023-01-20T02:06:32;99421.78;;;-2.23
74915;BMP280;63475;45.140;-75.616;2023-01-20T02:07:34;99458.66;;;-1.98
74915;BMP280;63475;45.140;-75.616;2023-01-20T02:08:36;99446.78;;;-1.99
74915;BMP280;63475;45.140;-75.616;2023-01-20T02:09:37;99459.44;;;-1.97
74915;BMP280;63475;45.140;-75.616;2023-01-20T02:10:38;99394.72;;;-2.41
74915;BMP280;63475;45.140;-75.616;2023-01-20T02:11:50;99453.41;;;-2.01
74915;BMP280;63475;45.140;-75.616;2023-01-20T02:12:52;99440.94;;;-2.12
74915;BMP280;63475;45.140;-75.616;2023-01-20T02:13:53;99441.03;;;-2.08
74915;BMP280;63475;45.140;-75.616;2023-01-20T02:14:56;99448.28;;;-1.98
74915;BMP280;63475;45.140;-75.616;2023-01-20T02:16:25;99443.78;;;-2.01
74915;BMP280;63475;45.140;-75.616;2023-01-20T02:18:03;99440.44;;;-2.01
74915;BMP280;63475;45.140;-75.616;2023-01-20T02:20:42;99441.88;;;-2.04
74915;BMP280;63475;45.140;-75.616;2023-01-20T02:29:20;99439.53;;;-2.09
74915;BMP280;63475;45.140;-75.616;2023-01-20T02:30:32;99444.38;;;-2.07
74915;BMP280;63475;45.140;-75.616;2023-01-20T02:32:56;99423.97;;;-2.25
74915;BMP280;63475;45.140;-75.616;2023-01-20T02:34:05;99421.28;;;-2.28
74915;BMP280;63475;45.140;-75.616;2023-01-20T02:35:10;99446.16;;;-2.12
74915;BMP280;63475;45.140;-75.616;2023-01-20T02:36:24;99439.88;;;-2.10
74915;BMP280;63475;45.140;-75.616;2023-01-20T02:37:28;99447.31;;;-2.09
74915;BMP280;63475;45.140;-75.616;2023-01-20T02:39:58;99447.31;;;-2.09
74915;BMP280;63475;45.140;-75.616;2023-01-20T02:41:16;99427.22;;;-2.28
74915;BMP280;63475;45.140;-75.616;2023-01-20T02:43:46;99360.59;;;-2.75
74915;BMP280;63475;45.140;-75.616;2023-01-20T02:45:13;99442.78;;;-2.12
74915;BMP280;63475;45.140;-75.616;2023-01-20T02:46:30;99420.13;;;-2.31
74915;BMP280;63475;45.140;-75.616;2023-01-20T02:48:58;99447.16;;;-2.16
74915;BMP280;63475;45.140;-75.616;2023-01-20T02:51:15;99443.94;;;-2.25
74915;BMP280;63475;45.140;-75.616;2023-01-20T02:52:38;99429.75;;;-2.31
74915;BMP280;63475;45.140;-75.616;2023-01-20T02:53:44;99444.63;;;-2.28
74915;BMP280;63475;45.140;-75.616;2023-01-20T02:54:49;99435.00;;;-2.28
74915;BMP280;63475;45.140;-75.616;2023-01-20T02:55:53;99435.00;;;-2.28
74915;BMP280;63475;45.140;-75.616;2023-01-20T02:56:57;99411.34;;;-2.42
74915;BMP280;63475;45.140;-75.616;2023-01-20T02:58:13;99413.94;;;-2.42
74915;BMP280;63475;45.140;-75.616;2023-01-20T02:59:18;99425.31;;;-2.31
74915;BMP280;63475;45.140;-75.616;2023-01-20T03:00:28;99430.91;;;-2.29
74915;BMP280;63475;45.140;-75.616;2023-01-20T03:01:36;99439.84;;;-2.26
74915;BMP280;63475;45.140;-75.616;2023-01-20T03:02:40;99423.47;;;-2.30
74915;BMP280;63475;45.140;-75.616;2023-01-20T03:03:44;99389.63;;;-2.53
74915;BMP280;63475;45.140;-75.616;2023-01-20T03:04:50;99433.91;;;-2.27
74915;BMP280;63475;45.140;-75.616;2023-01-20T03:05:56;99428.41;;;-2.25
74915;BMP280;63475;45.140;-75.616;2023-01-20T03:06:59;99405.50;;;-2.39
74915;BMP280;63475;45.140;-75.616;2023-01-20T03:08:05;99403.66;;;-2.38
74915;BMP280;63475;45.140;-75.616;2023-01-20T03:09:10;99426.06;;;-2.30
74915;BMP280;63475;45.140;-75.616;2023-01-20T03:10:15;99392.88;;;-2.40
74915;BMP280;63475;45.140;-75.616;2023-01-20T03:11:19;99432.84;;;-2.26
74915;BMP280;63475;45.140;-75.616;2023-01-20T03:12:24;99419.78;;;-2.29
74915;BMP280;63475;45.140;-75.616;2023-01-20T03:13:32;99427.66;;;-2.26
74915;BMP280;63475;45.140;-75.616;2023-01-20T03:14:34;99429.06;;;-2.28
74915;BMP280;63475;45.140;-75.616;2023-01-20T03:15:51;99397.13;;;-2.48
74915;BMP280;63475;45.140;-75.616;2023-01-20T03:16:54;99396.81;;;-2.47
74915;BMP280;63475;45.140;-75.616;2023-01-20T03:17:56;99432.84;;;-2.26
74915;BMP280;63475;45.140;-75.616;2023-01-20T03:18:57;99427.56;;;-2.29
74915;BMP280;63475;45.140;-75.616;2023-01-20T03:19:59;99414.09;;;-2.35
74915;BMP280;63475;45.140;-75.616;2023-01-20T03:21:01;99422.38;;;-2.29
74915;BMP280;63475;45.140;-75.616;2023-01-20T03:22:03;99402.00;;;-2.47
74915;BMP280;63475;45.140;-75.616;2023-01-20T03:23:04;99414.53;;;-2.33
74915;BMP280;63475;45.140;-75.616;2023-01-20T03:24:06;99389.44;;;-2.45
74915;BMP280;63475;45.140;-75.616;2023-01-20T03:25:09;99409.00;;;-2.31
74915;BMP280;63475;45.140;-75.616;2023-01-20T03:26:12;99397.88;;;-2.32
74915;BMP280;63475;45.140;-75.616;2023-01-20T03:27:14;99395.53;;;-2.37
74915;BMP280;63475;45.140;-75.616;2023-01-20T03:28:15;99379.50;;;-2.42
74915;BMP280;63475;45.140;-75.616;2023-01-20T03:29:15;99392.69;;;-2.32
74915;BMP280;63475;45.140;-75.616;2023-01-20T03:30:17;99375.41;;;-2.44
74915;BMP280;63475;45.140;-75.616;2023-01-20T03:32:40;99387.84;;;-2.33
74915;BMP280;63475;45.140;-75.616;2023-01-20T03:33:42;99361.84;;;-2.53
74915;BMP280;63475;45.140;-75.616;2023-01-20T03:34:44;99378.91;;;-2.36
74915;BMP280;63475;45.140;-75.616;2023-01-20T03:35:45;99383.06;;;-2.31
74915;BMP280;63475;45.140;-75.616;2023-01-20T03:36:47;99371.44;;;-2.37
74915;BMP280;63475;45.140;-75.616;2023-01-20T03:37:48;99382.31;;;-2.32
74915;BMP280;63475;45.140;-75.616;2023-01-20T03:38:50;99379.97;;;-2.37
74915;BMP280;63475;45.140;-75.616;2023-01-20T03:39:51;99372.13;;;-2.40
74915;BMP280;63475;45.140;-75.616;2023-01-20T03:41:18;99350.81;;;-2.50
74915;BMP280;63475;45.140;-75.616;2023-01-20T03:42:26;99362.94;;;-2.38
74915;BMP280;63475;45.140;-75.616;2023-01-20T03:43:42;99360.75;;;-2.36
74915;BMP280;63475;45.140;-75.616;2023-01-20T03:46:15;99366.69;;;-2.35
74915;BMP280;63475;45.140;-75.616;2023-01-20T03:48:41;99350.63;;;-2.41
74915;BMP280;63475;45.140;-75.616;2023-01-20T03:52:14;99345.53;;;-2.37
74915;BMP280;63475;45.140;-75.616;2023-01-20T03:53:32;99336.66;;;-2.36
74915;BMP280;63475;45.140;-75.616;2023-01-20T03:54:57;99334.81;;;-2.36
74915;BMP280;63475;45.140;-75.616;2023-01-20T03:56:19;99331.56;;;-2.33
74915;BMP280;63475;45.140;-75.616;2023-01-20T03:57:25;99326.72;;;-2.34
74915;BMP280;63475;45.140;-75.616;2023-01-20T03:58:41;99325.88;;;-2.38
74915;BMP280;63475;45.140;-75.616;2023-01-20T03:59:43;99293.94;;;-2.58
74915;BMP280;63475;45.140;-75.616;2023-01-20T04:00:47;99308.75;;;-2.43
74915;BMP280;63475;45.140;-75.616;2023-01-20T04:01:49;99317.69;;;-2.40
74915;BMP280;63475;45.140;-75.616;2023-01-20T04:02:52;99300.56;;;-2.45
74915;BMP280;63475;45.140;-75.616;2023-01-20T04:03:54;99309.50;;;-2.42
74915;BMP280;63475;45.140;-75.616;2023-01-20T04:04:56;99278.25;;;-2.50
74915;BMP280;63475;45.140;-75.616;2023-01-20T04:05:59;99287.25;;;-2.44
74915;BMP280;63475;45.140;-75.616;2023-01-20T04:07:09;99294.84;;;-2.35
74915;BMP280;63475;45.140;-75.616;2023-01-20T04:08:12;99291.34;;;-2.42
74915;BMP280;63475;45.140;-75.616;2023-01-20T04:09:18;99291.00;;;-2.41
74915;BMP280;63475;45.140;-75.616;2023-01-20T04:10:23;99291.34;;;-2.42
74915;BMP280;63475;45.140;-75.616;2023-01-20T04:11:25;99281.41;;;-2.40
74915;BMP280;63475;45.140;-75.616;2023-01-20T04:12:27;99285.09;;;-2.41
74915;BMP280;63475;45.140;-75.616;2023-01-20T04:13:28;99271.72;;;-2.44
74915;BMP280;63475;45.140;-75.616;2023-01-20T04:14:29;99274.38;;;-2.40
74915;BMP280;63475;45.140;-75.616;2023-01-20T04:15:37;99274.78;;;-2.38
74915;BMP280;63475;45.140;-75.616;2023-01-20T04:16:39;99269.13;;;-2.44
74915;BMP280;63475;45.140;-75.616;2023-01-20T04:17:40;99265.78;;;-2.44
74915;BMP280;63475;45.140;-75.616;2023-01-20T04:18:42;99263.94;;;-2.44
74915;BMP280;63475;45.140;-75.616;2023-01-20T04:19:44;99266.88;;;-2.45
74915;BMP280;63475;45.140;-75.616;2023-01-20T04:20:48;99250.81;;;-2.51
74915;BMP280;63475;45.140;-75.616;2023-01-20T04:21:59;99259.91;;;-2.41
74915;BMP280;63475;45.140;-75.616;2023-01-20T04:23:02;99250.91;;;-2.47
74915;BMP280;63475;45.140;-75.616;2023-01-20T04:25:35;99251.19;;;-2.33
74915;BMP280;63475;45.140;-75.616;2023-01-20T04:26:36;99255.53;;;-2.37
74915;BMP280;63475;45.140;-75.616;2023-01-20T04:27:37;99244.09;;;-2.36
74915;BMP280;63475;45.140;-75.616;2023-01-20T04:28:38;99235.50;;;-2.40
74915;BMP280;63475;45.140;-75.616;2023-01-20T04:29:39;99240.00;;;-2.37
74915;BMP280;63475;45.140;-75.616;2023-01-20T04:30:42;99236.25;;;-2.39
74915;BMP280;63475;45.140;-75.616;2023-01-20T04:31:43;99197.50;;;-2.67
74915;BMP280;63475;45.140;-75.616;2023-01-20T04:32:44;99225.13;;;-2.40
74915;BMP280;63475;45.140;-75.616;2023-01-20T04:33:45;99226.28;;;-2.37
74915;BMP280;63475;45.140;-75.616;2023-01-20T04:34:45;99198.72;;;-2.46
74915;BMP280;63475;45.140;-75.616;2023-01-20T04:35:46;99217.41;;;-2.36
74915;BMP280;63475;45.140;-75.616;2023-01-20T04:36:47;99208.13;;;-2.37
74915;BMP280;63475;45.140;-75.616;2023-01-20T04:37:48;99208.81;;;-2.40
74915;BMP280;63475;45.140;-75.616;2023-01-20T04:38:49;99201.03;;;-2.40
74915;BMP280;63475;45.140;-75.616;2023-01-20T04:39:50;99198.38;;;-2.44
74915;BMP280;63475;45.140;-75.616;2023-01-20T04:40:51;99193.53;;;-2.46
74915;BMP280;63475;45.140;-75.616;2023-01-20T04:41:52;99192.84;;;-2.42
74915;BMP280;63475;45.140;-75.616;2023-01-20T04:42:53;99154.97;;;-2.66
74915;BMP280;63475;45.140;-75.616;2023-01-20T04:43:54;99180.78;;;-2.35
74915;BMP280;63475;45.140;-75.616;2023-01-20T04:44:54;99176.63;;;-2.39
74915;BMP280;63475;45.140;-75.616;2023-01-20T04:45:55;99185.97;;;-2.35
74915;BMP280;63475;45.140;-75.616;2023-01-20T04:46:57;99152.19;;;-2.58
74915;BMP280;63475;45.140;-75.616;2023-01-20T04:47:58;99178.19;;;-2.35
74915;BMP280;63475;45.140;-75.616;2023-01-20T04:48:59;99172.94;;;-2.38
74915;BMP280;63475;45.140;-75.616;2023-01-20T04:50:00;99173.28;;;-2.40
74915;BMP280;63475;45.140;-75.616;2023-01-20T04:51:03;99178.53;;;-2.36
74915;BMP280;63475;45.140;-75.616;2023-01-20T04:52:04;99179.28;;;-2.36
74915;BMP280;63475;45.140;-75.616;2023-01-20T04:53:06;99172.59;;;-2.37
74915;BMP280;63475;45.140;-75.616;2023-01-20T04:54:07;99175.94;;;-2.36
74915;BMP280;63475;45.140;-75.616;2023-01-20T04:55:09;99174.44;;;-2.37
74915;BMP280;63475;45.140;-75.616;2023-01-20T04:56:11;99179.28;;;-2.36
74915;BMP280;63475;45.140;-75.616;2023-01-20T04:57:12;99177.72;;;-2.40
74915;BMP280;63475;45.140;-75.616;2023-01-20T04:58:13;99177.78;;;-2.37
74915;BMP280;63475;45.140;-75.616;2023-01-20T04:59:14;99172.53;;;-2.40
74915;BMP280;63475;45.140;-75.616;2023-01-20T05:00:15;99173.97;;;-2.43
74915;BMP280;63475;45.140;-75.616;2023-01-20T05:01:19;99177.03;;;-2.37
74915;BMP280;63475;45.140;-75.616;2023-01-20T05:02:20;99172.53;;;-2.40
74915;BMP280;63475;45.140;-75.616;2023-01-20T05:03:21;99177.38;;;-2.39
74915;BMP280;63475;45.140;-75.616;2023-01-20T05:04:22;99183.31;;;-2.38
74915;BMP280;63475;45.140;-75.616;2023-01-20T05:05:23;99168.78;;;-2.43
74915;BMP280;63475;45.140;-75.616;2023-01-20T05:06:23;99166.94;;;-2.42
74915;BMP280;63475;45.140;-75.616;2023-01-20T05:07:24;99175.19;;;-2.37
74915;BMP280;63475;45.140;-75.616;2023-01-20T05:08:25;99174.09;;;-2.36
74915;BMP280;63475;45.140;-75.616;2023-01-20T05:09:26;99170.81;;;-2.33
74915;BMP280;63475;45.140;-75.616;2023-01-20T05:10:27;99165.28;;;-2.31
74915;BMP280;63475;45.140;-75.616;2023-01-20T05:11:28;99141.28;;;-2.48
74915;BMP280;63475;45.140;-75.616;2023-01-20T05:12:29;99164.88;;;-2.33
74915;BMP280;63475;45.140;-75.616;2023-01-20T05:13:30;99165.22;;;-2.35
74915;BMP280;63475;45.140;-75.616;2023-01-20T05:14:32;99156.69;;;-2.35
74915;BMP280;63475;45.140;-75.616;2023-01-20T05:15:32;99163.38;;;-2.34
74915;BMP280;63475;45.140;-75.616;2023-01-20T05:16:33;99134.94;;;-2.50
74915;BMP280;63475;45.140;-75.616;2023-01-20T05:17:34;99159.22;;;-2.39
74915;BMP280;63475;45.140;-75.616;2023-01-20T05:18:35;99123.41;;;-2.53
74915;BMP280;63475;45.140;-75.616;2023-01-20T05:19:36;99147.88;;;-2.31
74915;BMP280;63475;45.140;-75.616;2023-01-20T05:20:38;99153.41;;;-2.32
74915;BMP280;63475;45.140;-75.616;2023-01-20T05:21:39;99147.13;;;-2.31
74915;BMP280;63475;45.140;-75.616;2023-01-20T05:22:42;99159.75;;;-2.30
74915;BMP280;63475;45.140;-75.616;2023-01-20T05:23:42;99149.25;;;-2.37
74915;BMP280;63475;45.140;-75.616;2023-01-20T05:24:43;99154.84;;;-2.35
74915;BMP280;63475;45.140;-75.616;2023-01-20T05:25:51;99160.03;;;-2.35
74915;BMP280;63475;45.140;-75.616;2023-01-20T05:26:52;99132.81;;;-2.45
74915;BMP280;63475;45.140;-75.616;2023-01-20T05:27:53;99108.41;;;-2.63
74915;BMP280;63475;45.140;-75.616;2023-01-20T05:28:54;99152.25;;;-2.35
74915;BMP280;63475;45.140;-75.616;2023-01-20T05:29:55;99146.31;;;-2.35
74915;BMP280;63475;45.140;-75.616;2023-01-20T05:30:56;99143.66;;;-2.39
74915;BMP280;63475;45.140;-75.616;2023-01-20T05:31:57;99147.06;;;-2.35
74915;BMP280;63475;45.140;-75.616;2023-01-20T05:32:58;99142.56;;;-2.38
74915;BMP280;63475;45.140;-75.616;2023-01-20T05:33:58;99114.47;;;-2.55
74915;BMP280;63475;45.140;-75.616;2023-01-20T05:34:59;99141.81;;;-2.38
74915;BMP280;63475;45.140;-75.616;2023-01-20T05:36:06;99129.75;;;-2.31
74915;BMP280;63475;45.140;-75.616;2023-01-20T05:37:08;99137.53;;;-2.31
74915;BMP280;63475;45.140;-75.616;2023-01-20T05:38:08;99129.34;;;-2.33
74915;BMP280;63475;45.140;-75.616;2023-01-20T05:39:09;99135.63;;;-2.34
74915;BMP280;63475;45.140;-75.616;2023-01-20T05:40:11;99127.50;;;-2.32
74915;BMP280;63475;45.140;-75.616;2023-01-20T05:41:12;99128.19;;;-2.35
74915;BMP280;63475;45.140;-75.616;2023-01-20T05:42:13;99123.81;;;-2.31
74915;BMP280;63475;45.140;-75.616;2023-01-20T05:43:15;99121.22;;;-2.31
74915;BMP280;63475;45.140;-75.616;2023-01-20T05:44:16;99103.28;;;-2.40
74915;BMP280;63475;45.140;-75.616;2023-01-20T05:45:16;99093.13;;;-2.49
74915;BMP280;63475;45.140;-75.616;2023-01-20T05:46:17;99125.31;;;-2.30
74915;BMP280;63475;45.140;-75.616;2023-01-20T05:47:18;99109.50;;;-2.45
74915;BMP280;63475;45.140;-75.616;2023-01-20T05:48:19;99125.31;;;-2.30
74915;BMP280;63475;45.140;-75.616;2023-01-20T05:49:21;99106.97;;;-2.41
74915;BMP280;63475;45.140;-75.616;2023-01-20T05:50:22;99124.56;;;-2.31
74915;BMP280;63475;45.140;-75.616;2023-01-20T05:51:23;99126.75;;;-2.33
74915;BMP280;63475;45.140;-75.616;2023-01-20T05:52:24;99121.50;;;-2.36
74915;BMP280;63475;45.140;-75.616;2023-01-20T05:53:25;99120.00;;;-2.37
74915;BMP280;63475;45.140;-75.616;2023-01-20T05:54:26;99124.91;;;-2.32
74915;BMP280;63475;45.140;-75.616;2023-01-20T05:55:27;99119.66;;;-2.36
74915;BMP280;63475;45.140;-75.616;2023-01-20T05:56:28;99095.50;;;-2.40
74915;BMP280;63475;45.140;-75.616;2023-01-20T05:57:29;99116.44;;;-2.29
74915;BMP280;63475;45.140;-75.616;2023-01-20T05:58:30;99125.72;;;-2.28
74915;BMP280;63475;45.140;-75.616;2023-01-20T05:59:31;99123.53;;;-2.26
74915;BMP280;63475;45.140;-75.616;2023-01-20T06:00:32;99121.28;;;-2.28
74915;BMP280;63475;45.140;-75.616;2023-01-20T06:01:34;99120.19;;;-2.27
74915;BMP280;63475;45.140;-75.616;2023-01-20T06:02:35;99123.88;;;-2.28
74915;BMP280;63475;45.140;-75.616;2023-01-20T06:03:36;99120.06;;;-2.34
74915;BMP280;63475;45.140;-75.616;2023-01-20T06:04:37;99128.72;;;-2.26
74915;BMP280;63475;45.140;-75.616;2023-01-20T06:05:38;99100.56;;;-2.47
74915;BMP280;63475;45.140;-75.616;2023-01-20T06:06:39;99111.81;;;-2.39
74915;BMP280;63475;45.140;-75.616;2023-01-20T06:07:40;99126.53;;;-2.24
74915;BMP280;63475;45.140;-75.616;2023-01-20T06:08:41;99119.09;;;-2.26
74915;BMP280;63475;45.140;-75.616;2023-01-20T06:09:42;99121.63;;;-2.29
74915;BMP280;63475;45.140;-75.616;2023-01-20T06:10:43;99123.53;;;-2.26
74915;BMP280;63475;45.140;-75.616;2023-01-20T06:11:44;99127.63;;;-2.25
74915;BMP280;63475;45.140;-75.616;2023-01-20T06:12:50;99126.13;;;-2.26
74915;BMP280;63475;45.140;-75.616;2023-01-20T06:13:52;99112.22;;;-2.37
74915;BMP280;63475;45.140;-75.616;2023-01-20T06:14:53;99123.59;;;-2.23
74915;BMP280;63475;45.140;-75.616;2023-01-20T06:15:54;99124.69;;;-2.24
74915;BMP280;63475;45.140;-75.616;2023-01-20T06:16:55;99120.25;;;-2.23
74915;BMP280;63475;45.140;-75.616;2023-01-20T06:17:56;99117.25;;;-2.25